Time;durP1;ratioP1;P1;durP2;ratioP2;P2;SDS_P1;SDS_P2;PMS_P1;PMS_P2;Temp;Humidity;BMP_temperature;BMP_pressure;BME280_temperature;BME280_humidity;BME280_pressure;Samples;Min_cycle;Max_cycle;Signal;HPM_P1;HPM_P2
2024/03/29 00:01:28;;;;;;;4.45;1.33;;;;;;;5.76;79.57;96873.84;5016447;28;20030;-85
2024/03/29 00:03:53;;;;;;;3.53;1.15;;;;;;;5.70;80.25;96883.63;4985871;28;20120;-84
2024/03/29 00:06:19;;;;;;;2.88;1.42;;;;;;;5.78;81.13;96903.50;4994746;28;20026;-84
2024/03/29 00:08:45;;;;;;;2.63;2.35;;;;;;;5.75;80.47;96904.00;5017431;28;20097;-84
2024/03/29 00:11:10;;;;;;;4.55;1.45;;;;;;;5.40;80.52;96890.75;4983931;28;20025;-83
2024/03/29 00:13:35;;;;;;;3.97;1.17;;;;;;;5.67;80.40;96913.28;5009553;28;20036;-85
2024/03/29 00:16:01;;;;;;;8.85;1.30;;;;;;;5.87;80.68;96923.91;4991839;28;20033;-84
2024/03/29 00:18:26;;;;;;;3.33;0.95;;;;;;;5.87;79.42;96926.56;5001198;28;20025;-84
2024/03/29 00:20:52;;;;;;;3.22;1.00;;;;;;;5.48;80.33;96904.28;5015997;28;20038;-84
2024/03/29 00:23:17;;;;;;;4.63;1.20;;;;;;;5.75;80.19;96885.47;4983532;28;20040;-84
2024/03/29 00:25:43;;;;;;;3.85;1.50;;;;;;;5.39;80.03;96854.81;4987945;28;20029;-85
2024/03/29 00:28:08;;;;;;;2.72;1.13;;;;;;;6.05;80.12;96925.22;4992934;28;20116;-85
2024/03/29 00:30:33;;;;;;;1.42;1.20;;;;;;;5.78;79.80;96898.19;4998196;28;20038;-84
2024/03/29 00:32:59;;;;;;;2.97;1.33;;;;;;;5.73;79.89;96900.84;4964014;28;20030;-84
2024/03/29 00:35:24;;;;;;;3.28;1.13;;;;;;;5.89;79.16;96915.69;4996837;28;20037;-84
2024/03/29 00:37:50;;;;;;;3.15;1.33;;;;;;;5.63;79.62;96884.97;4978585;28;20124;-84
2024/03/29 00:40:16;;;;;;;2.85;1.17;;;;;;;5.69;80.76;96918.31;5000544;28;20044;-84
2024/03/29 00:42:42;;;;;;;4.25;1.13;;;;;;;5.40;79.38;96872.25;5014164;28;20042;-85
2024/03/29 00:45:07;;;;;;;2.05;1.27;;;;;;;5.85;79.83;96899.53;4996108;28;20050;-83
2024/03/29 00:47:33;;;;;;;8.38;2.08;;;;;;;5.83;79.78;96917.50;4982542;28;20050;-85
2024/03/29 00:49:58;;;;;;;4.60;1.35;;;;;;;5.60;79.82;96859.81;5012660;28;20115;-83
2024/03/29 00:52:24;;;;;;;2.75;1.50;;;;;;;5.85;79.45;96915.41;4971267;28;20030;-83
2024/03/29 00:54:50;;;;;;;3.40;0.93;;;;;;;5.80;79.01;96881.00;5014676;28;20037;-82
2024/03/29 00:57:16;;;;;;;2.65;1.50;;;;;;;5.62;78.66;96873.59;4978738;28;20406;-84
2024/03/29 00:59:43;;;;;;;2.25;1.10;;;;;;;5.85;78.85;96894.25;4983489;28;20056;-83
2024/03/29 01:02:08;;;;;;;3.10;1.10;;;;;;;5.90;78.60;96875.72;4998441;28;20033;-84
2024/03/29 01:04:34;;;;;;;2.28;0.90;;;;;;;6.14;78.50;96922.84;4997004;28;20026;-84
2024/03/29 01:06:59;;;;;;;5.55;1.10;;;;;;;5.97;78.60;96897.41;4997155;28;20038;-83
2024/03/29 01:09:25;;;;;;;3.60;1.13;;;;;;;5.99;78.27;96899.78;5012477;28;20030;-84
2024/03/29 01:11:50;;;;;;;2.33;1.10;;;;;;;5.97;78.44;96897.41;4983405;28;20044;-83
2024/03/29 01:14:16;;;;;;;3.25;1.30;;;;;;;6.01;77.43;96882.59;4996508;28;20478;-84
2024/03/29 01:16:41;;;;;;;5.40;1.20;;;;;;;5.91;77.82;96874.66;5011644;28;20040;-84
2024/03/29 01:19:08;;;;;;;1.85;1.15;;;;;;;5.67;77.65;96833.09;4966098;28;20037;-84
2024/03/29 01:21:34;;;;;;;2.30;0.90;;;;;;;6.35;77.21;96892.59;4973628;28;20030;-84
2024/03/29 01:23:59;;;;;;;2.53;1.08;;;;;;;6.01;77.55;96864.06;4984514;28;20037;-85
2024/03/29 01:26:24;;;;;;;4.55;1.17;;;;;;;6.37;76.73;96893.91;4997162;28;20034;-84
2024/03/29 01:28:50;;;;;;;4.07;1.17;;;;;;;5.96;76.56;96832.28;4996624;28;20084;-83
2024/03/29 01:31:15;;;;;;;3.80;1.33;;;;;;;5.97;77.47;96892.13;4985822;28;20030;-83
2024/03/29 01:33:41;;;;;;;2.05;0.98;;;;;;;5.37;78.03;96923.84;4996081;28;20103;-83
2024/03/29 01:36:09;;;;;;;6.03;1.20;;;;;;;5.45;79.20;96912.75;5012389;28;20029;-85
2024/03/29 01:38:35;;;;;;;2.60;1.20;;;;;;;5.12;79.73;96929.88;5014992;28;20030;-84
2024/03/29 01:41:01;;;;;;;3.92;1.10;;;;;;;5.83;79.72;96943.22;4979115;28;20034;-83
2024/03/29 01:43:29;;;;;;;2.85;1.02;;;;;;;4.84;79.41;96911.00;5014546;28;20668;-85
2024/03/29 01:45:56;;;;;;;3.58;1.40;;;;;;;5.22;78.80;96911.38;4994990;28;20026;-83
2024/03/29 01:48:23;;;;;;;2.70;1.40;;;;;;;4.64;79.75;96903.00;5008731;28;20030;-85
2024/03/29 01:50:49;;;;;;;4.30;1.58;;;;;;;4.71;80.63;96922.06;4984722;28;20026;-84
2024/03/29 01:53:17;;;;;;;2.25;1.05;;;;;;;5.12;81.20;96911.34;4993417;28;20037;-84
2024/03/29 01:55:42;;;;;;;3.28;1.42;;;;;;;5.54;79.37;96944.75;4976217;28;20037;-85
2024/03/29 01:58:10;;;;;;;7.07;1.95;;;;;;;4.79;80.30;96937.41;4979192;28;20481;-83
2024/03/29 02:00:43;;;;;;;3.30;1.17;;;;;;;4.88;80.96;96934.00;4997067;28;20030;-84
2024/03/29 02:03:12;;;;;;;6.22;1.42;;;;;;;4.76;79.83;96925.50;5002437;28;20061;-83
2024/03/29 02:05:40;;;;;;;1.52;0.82;;;;;;;4.36;82.41;96854.00;4994575;28;20030;-83
2024/03/29 02:08:07;;;;;;;3.97;1.20;;;;;;;4.92;82.03;96900.72;4996340;28;20026;-85
2024/03/29 02:10:34;;;;;;;3.97;1.63;;;;;;;4.85;80.42;96920.53;5001006;28;20030;-85
2024/03/29 02:12:59;;;;;;;5.38;1.48;;;;;;;4.57;80.94;96921.72;4994905;28;20025;-84
2024/03/29 02:15:25;;;;;;;1.25;1.15;;;;;;;4.35;83.20;96943.00;4968349;28;20030;-84
2024/03/29 02:17:51;;;;;;;2.80;1.42;;;;;;;3.46;85.05;96936.78;4980431;28;20026;-84
2024/03/29 02:20:16;;;;;;;2.63;2.42;;;;;;;2.95;86.59;96889.88;4982787;28;20048;-83
2024/03/29 02:22:52;;;;;;;5.90;0.98;;;;;;;3.52;87.77;96933.13;4994703;28;20505;-84
2024/03/29 02:25:18;;;;;;;2.85;1.30;;;;;;;4.41;84.65;96935.91;4994694;28;20030;-83
2024/03/29 02:27:44;;;;;;;5.22;1.38;;;;;;;4.61;82.74;96888.44;4980952;28;20492;-84
2024/03/29 02:30:14;;;;;;;3.22;1.67;;;;;;;5.12;82.70;96929.88;4966869;28;20053;-84
2024/03/29 02:32:39;;;;;;;6.18;1.40;;;;;;;4.41;82.48;96923.47;5013666;28;20026;-84
2024/03/29 02:35:05;;;;;;;5.93;1.30;;;;;;;4.59;84.13;96932.06;4995901;28;20460;-84
2024/03/29 02:37:30;;;;;;;5.18;1.35;;;;;;;5.32;80.71;96886.81;5013578;28;20037;-84
2024/03/29 02:39:55;;;;;;;2.63;1.08;;;;;;;5.91;79.02;96924.16;4981663;28;20195;-84
2024/03/29 02:42:21;;;;;;;6.72;1.33;;;;;;;6.03;78.55;96909.59;4981047;28;20469;-84
2024/03/29 02:44:47;;;;;;;1.75;1.20;;;;;;;6.17;77.44;96911.69;4981374;28;20030;-84
2024/03/29 02:47:12;;;;;;;3.70;1.35;;;;;;;5.15;79.82;96863.25;4978519;28;20034;-84
2024/03/29 02:49:40;;;;;;;5.05;1.48;;;;;;;5.80;78.85;96886.28;4993992;28;20061;-84
2024/03/29 02:52:06;;;;;;;2.97;1.42;;;;;;;6.16;78.20;96918.06;4992946;28;20026;-83
2024/03/29 02:54:32;;;;;;;4.18;1.55;;;;;;;5.90;77.30;96894.25;4991834;28;20036;-83
2024/03/29 02:56:57;;;;;;;2.58;1.23;;;;;;;6.17;77.91;96927.59;4993595;28;20040;-83
2024/03/29 02:59:22;;;;;;;3.60;1.38;;;;;;;6.21;76.93;96928.63;4997052;28;20041;-83
2024/03/29 03:01:48;;;;;;;5.05;1.40;;;;;;;5.80;77.76;96877.56;4978833;28;20038;-84
2024/03/29 03:04:13;;;;;;;4.25;1.17;;;;;;;5.95;76.99;96873.06;4980923;28;20033;-83
2024/03/29 03:06:38;;;;;;;4.35;1.30;;;;;;;6.33;76.59;96905.31;4980984;28;20519;-83
2024/03/29 03:11:47;;;;;;;3.78;1.42;;;;;;;6.18;76.35;96890.22;4981210;28;20042;-86
2024/03/29 03:14:13;;;;;;;2.33;1.30;;;;;;;6.18;76.91;96908.00;5008254;28;20033;-85
2024/03/29 03:16:38;;;;;;;2.67;1.15;;;;;;;6.24;77.42;96897.13;5013688;28;20100;-87
2024/03/29 03:19:04;;;;;;;1.90;1.17;;;;;;;6.08;77.58;96869.06;5013027;28;20053;-86
2024/03/29 03:21:29;;;;;;;4.55;2.35;;;;;;;6.17;77.79;96887.84;4986317;28;20034;-83
2024/03/29 03:23:54;;;;;;;4.95;1.25;;;;;;;5.99;77.82;96852.13;4976717;28;20034;-84
2024/03/29 03:26:20;;;;;;;5.68;1.23;;;;;;;5.66;78.89;96853.47;4996141;28;20040;-83
2024/03/29 03:28:45;;;;;;;5.53;1.20;;;;;;;5.79;79.04;96852.94;5002082;28;20034;-83
2024/03/29 03:31:11;;;;;;;3.53;1.15;;;;;;;5.23;79.60;96848.69;4982518;28;20875;-83
2024/03/29 03:33:36;;;;;;;2.42;0.95;;;;;;;5.61;80.66;96872.00;5012748;28;20034;-83
2024/03/29 03:36:02;;;;;;;4.68;1.20;;;;;;;5.82;79.61;96878.06;4994916;28;20033;-83
2024/03/29 03:38:27;;;;;;;3.20;1.38;;;;;;;5.96;78.86;96885.22;5013781;28;20025;-83
2024/03/29 03:40:53;;;;;;;5.15;1.95;;;;;;;6.21;78.72;96880.94;5011082;28;20021;-83
2024/03/29 03:43:18;;;;;;;2.70;1.13;;;;;;;6.00;78.32;96853.75;4978282;28;20042;-83
2024/03/29 03:45:44;;;;;;;1.55;1.45;;;;;;;6.06;78.65;96863.25;4987073;28;20073;-83
2024/03/29 03:48:12;;;;;;;5.55;1.15;;;;;;;5.52;80.03;96847.13;5010877;28;20044;-84
2024/03/29 03:50:38;;;;;;;4.18;1.27;;;;;;;5.84;79.77;96870.69;5010612;28;20104;-84
2024/03/29 03:53:04;;;;;;;8.57;1.35;;;;;;;5.58;80.59;96877.81;5010265;28;20026;-84
2024/03/29 03:55:29;;;;;;;4.95;1.33;;;;;;;5.82;80.59;96835.72;5011909;28;20064;-84
2024/03/29 03:57:55;;;;;;;2.75;0.80;;;;;;;6.04;79.72;96879.41;4977187;28;20104;-84
2024/03/29 04:00:21;;;;;;;2.75;1.38;;;;;;;5.93;79.19;96888.44;4994801;28;20026;-84
2024/03/29 04:02:50;;;;;;;8.30;1.52;;;;;;;6.17;79.76;96879.91;4996851;28;20112;-83
2024/03/29 04:05:19;;;;;;;4.20;1.25;;;;;;;5.44;79.20;96789.44;4996716;28;20076;-83
2024/03/29 04:07:45;;;;;;;6.07;1.30;;;;;;;5.67;79.33;96828.59;4993690;28;20497;-84
2024/03/29 04:10:11;;;;;;;6.20;1.40;;;;;;;5.49;80.49;96890.00;4984049;28;20056;-83
2024/03/29 04:12:37;;;;;;;6.53;1.45;;;;;;;5.85;80.48;96882.88;4994192;28;20025;-84
2024/03/29 04:15:03;;;;;;;4.95;1.25;;;;;;;5.76;81.07;96869.34;5013055;28;20516;-84
2024/03/29 04:17:30;;;;;;;7.07;1.70;;;;;;;5.90;80.43;96902.19;4992837;28;20034;-84
2024/03/29 04:19:56;;;;;;;1.75;1.58;;;;;;;5.82;81.28;96884.16;4992144;28;20045;-83
2024/03/29 04:22:22;;;;;;;4.40;1.08;;;;;;;5.63;80.66;96867.25;4992483;28;20030;-84
2024/03/29 04:24:47;;;;;;;6.70;3.13;;;;;;;5.86;80.44;96897.69;4991512;28;20375;-83
2024/03/29 04:27:12;;;;;;;3.20;1.15;;;;;;;5.80;80.83;96906.66;4987926;28;20128;-83
2024/03/29 04:29:38;;;;;;;2.58;1.20;;;;;;;5.62;80.74;96910.63;4979627;28;20049;-83
2024/03/29 04:32:03;;;;;;;6.38;1.42;;;;;;;5.17;80.32;96860.34;4991226;28;20029;-84
2024/03/29 04:34:29;;;;;;;1.92;1.30;;;;;;;5.45;81.77;96867.75;4961009;28;20387;-83
2024/03/29 04:36:54;;;;;;;2.17;1.10;;;;;;;5.42;81.01;96860.34;4978483;28;20033;-83
2024/03/29 04:39:20;;;;;;;3.63;1.10;;;;;;;5.89;80.26;96897.97;4995819;28;20026;-83
2024/03/29 04:41:45;;;;;;;4.00;1.20;;;;;;;6.01;79.98;96913.56;4966953;28;20042;-83
2024/03/29 04:44:13;;;;;;;5.60;1.45;;;;;;;5.89;80.00;96929.75;4986059;28;20259;-83
2024/03/29 04:46:39;;;;;;;2.80;1.30;;;;;;;5.70;79.92;96917.25;5014612;28;20041;-83
2024/03/29 04:49:04;;;;;;;4.18;1.55;;;;;;;5.82;79.70;96894.75;4984118;28;20432;-83
2024/03/29 04:51:30;;;;;;;6.47;2.15;;;;;;;5.82;80.71;96905.34;4979537;28;20060;-83
2024/03/29 04:53:55;;;;;;;2.08;1.40;;;;;;;6.10;79.72;96916.47;4998185;28;20825;-83
2024/03/29 04:56:20;;;;;;;1.63;1.02;;;;;;;6.53;79.10;96951.09;5004821;28;20449;-83
2024/03/29 04:58:46;;;;;;;3.10;1.10;;;;;;;6.19;78.94;96914.88;4982938;28;20521;-84
2024/03/29 05:01:11;;;;;;;1.73;1.13;;;;;;;5.85;79.37;96918.06;4983149;28;20100;-83
2024/03/29 05:03:37;;;;;;;4.20;1.60;;;;;;;5.25;79.98;96892.34;4995803;28;20474;-83
2024/03/29 05:06:02;;;;;;;3.45;1.77;;;;;;;5.45;81.01;96936.56;4981949;28;20397;-84
2024/03/29 05:08:27;;;;;;;5.03;1.63;;;;;;;5.30;81.40;96897.66;4999423;28;20065;-83
2024/03/29 05:10:53;;;;;;;5.65;1.65;;;;;;;5.30;81.74;96920.66;4980286;28;20041;-83
2024/03/29 05:13:22;;;;;;;2.40;1.42;;;;;;;4.97;82.85;96918.44;4979472;28;20034;-83
2024/03/29 05:15:47;;;;;;;5.85;1.67;;;;;;;5.40;83.42;96923.31;5014846;28;20096;-83
2024/03/29 05:18:13;;;;;;;6.18;2.00;;;;;;;5.36;83.21;96932.81;5000116;28;20034;-84
2024/03/29 05:20:41;;;;;;;10.45;1.98;;;;;;;5.06;84.39;96932.75;4981701;28;20120;-83
2024/03/29 05:23:06;;;;;;;3.20;1.70;;;;;;;4.86;85.51;96911.53;5012046;28;20501;-84
2024/03/29 05:25:32;;;;;;;2.53;1.48;;;;;;;5.59;83.61;96924.38;4976075;28;20029;-83
2024/03/29 05:27:57;;;;;;;7.82;3.15;;;;;;;5.23;82.20;96881.25;4999140;28;20046;-83
2024/03/29 05:30:24;;;;;;;5.25;1.80;;;;;;;5.53;83.01;96924.63;4994745;28;20037;-84
2024/03/29 05:32:49;;;;;;;5.68;1.95;;;;;;;5.02;83.85;96910.53;4962360;28;20168;-83
2024/03/29 05:35:15;;;;;;;4.10;1.80;;;;;;;5.51;83.38;96940.78;4977640;28;20116;-83
2024/03/29 05:37:40;;;;;;;4.38;1.52;;;;;;;5.39;82.85;96890.00;4973195;28;20141;-83
2024/03/29 05:40:07;;;;;;;1.48;1.00;;;;;;;5.89;81.26;96905.13;4965363;28;20079;-84
2024/03/29 05:42:34;;;;;;;3.80;1.55;;;;;;;5.39;82.81;96889.19;4981208;28;20034;-84
2024/03/29 05:44:59;;;;;;;1.98;1.20;;;;;;;5.87;82.54;96939.81;5000048;28;20477;-85
2024/03/29 05:47:25;;;;;;;1.25;1.15;;;;;;;5.67;82.19;96897.41;4999879;28;20034;-86
2024/03/29 05:49:51;;;;;;;1.77;0.90;;;;;;;5.61;81.30;96887.88;4999186;28;20034;-85
2024/03/29 05:52:17;;;;;;;3.33;1.23;;;;;;;5.68;82.44;96916.75;5014690;28;20502;-85
2024/03/29 05:54:44;;;;;;;3.50;1.25;;;;;;;4.71;84.17;96803.94;4984959;28;20061;-85
2024/03/29 05:57:10;;;;;;;5.25;1.60;;;;;;;5.73;83.28;96940.53;4988438;28;20080;-85
2024/03/29 05:59:36;;;;;;;3.92;1.30;;;;;;;5.59;83.86;96940.25;5000060;28;20494;-85
2024/03/29 06:02:02;;;;;;;3.45;1.30;;;;;;;4.75;83.01;96768.03;5004766;28;20041;-85
2024/03/29 06:04:33;;;;;;;2.05;1.42;;;;;;;5.52;83.75;96889.47;4972521;28;20030;-85
2024/03/29 06:07:03;;;;;;;2.92;1.73;;;;;;;5.41;84.58;96903.75;4983873;28;20038;-85
2024/03/29 06:09:28;;;;;;;1.85;1.30;;;;;;;5.27;84.92;96900.00;4981976;28;20033;-86
2024/03/29 06:11:55;;;;;;;2.65;1.45;;;;;;;4.94;85.65;96874.81;5001167;28;20022;-86
2024/03/29 06:17:23;;;;;;;1.42;1.10;;;;;;;5.74;84.22;96950.88;5009079;28;20052;-85
2024/03/29 06:19:55;;;;;;;2.08;1.20;;;;;;;5.46;85.37;96906.38;5001561;28;20060;-86
2024/03/29 06:22:21;;;;;;;2.70;1.40;;;;;;;5.27;86.64;96940.47;5003290;28;20034;-86
2024/03/29 06:24:47;;;;;;;4.88;1.55;;;;;;;5.65;84.67;96904.81;4987880;28;20125;-86
2024/03/29 06:27:17;;;;;;;2.05;1.30;;;;;;;5.94;83.61;96913.84;4983249;28;20057;-86
2024/03/29 06:29:43;;;;;;;4.32;1.65;;;;;;;5.89;83.92;96924.44;5011840;28;20041;-86
2024/03/29 06:32:08;;;;;;;3.17;1.40;;;;;;;5.96;83.92;96937.41;4991621;28;20029;-86
2024/03/29 06:34:35;;;;;;;1.90;1.40;;;;;;;5.42;85.45;96884.16;4974469;28;20022;-86
2024/03/29 06:37:00;;;;;;;1.25;1.17;;;;;;;5.62;84.68;96857.72;5005056;28;20053;-85
2024/03/29 06:39:26;;;;;;;2.25;1.33;;;;;;;6.01;82.16;96877.28;4969466;28;20163;-85
2024/03/29 06:41:52;;;;;;;1.42;1.33;;;;;;;6.01;83.13;96882.59;5000576;28;20026;-84
2024/03/29 06:44:17;;;;;;;2.05;1.05;;;;;;;5.33;84.58;96803.72;4988757;28;20037;-85
2024/03/29 06:46:42;;;;;;;1.17;0.90;;;;;;;5.30;86.12;96839.47;5019132;28;20037;-84
2024/03/29 06:49:08;;;;;;;2.13;1.35;;;;;;;6.02;85.62;96909.88;4998944;28;20089;-84
2024/03/29 06:51:33;;;;;;;2.55;1.10;;;;;;;5.63;83.95;96810.88;4989179;28;20041;-84
2024/03/29 06:53:59;;;;;;;3.53;1.30;;;;;;;5.79;86.60;96897.94;5002748;28;20045;-84
2024/03/29 06:56:24;;;;;;;3.25;2.00;;;;;;;5.45;86.30;96841.31;4971749;28;20413;-84
2024/03/29 06:58:50;;;;;;;3.08;1.30;;;;;;;6.22;83.67;96906.41;4982010;28;20058;-84
2024/03/29 07:01:15;;;;;;;4.75;1.55;;;;;;;6.21;84.33;96918.03;4969701;28;20046;-84
2024/03/29 07:03:41;;;;;;;3.10;1.30;;;;;;;5.86;84.70;96869.38;4988332;28;20026;-85
2024/03/29 07:06:06;;;;;;;3.30;1.52;;;;;;;5.99;85.20;96905.91;4989626;28;20060;-84
2024/03/29 07:08:31;;;;;;;5.35;2.03;;;;;;;5.99;86.68;96907.75;5003103;28;20026;-84
2024/03/29 07:10:59;;;;;;;2.45;2.05;;;;;;;6.08;84.94;96887.59;4995832;28;20087;-85
2024/03/29 07:13:24;;;;;;;1.55;1.42;;;;;;;6.01;86.92;96908.25;4990170;28;20013;-84
2024/03/29 07:15:53;;;;;;;4.47;1.73;;;;;;;5.49;86.26;96804.53;4971363;28;20038;-84
2024/03/29 07:18:18;;;;;;;5.03;2.13;;;;;;;5.97;88.23;96915.16;5019093;28;20033;-85
2024/03/29 07:20:44;;;;;;;3.50;1.70;;;;;;;4.94;87.65;96744.50;4985568;28;20033;-84
2024/03/29 07:23:11;;;;;;;2.28;2.08;;;;;;;5.25;87.95;96777.81;4997322;28;20057;-84
2024/03/29 07:25:36;;;;;;;2.85;1.70;;;;;;;6.22;86.06;96886.00;4968825;28;20026;-84
2024/03/29 07:28:02;;;;;;;5.13;1.55;;;;;;;5.74;88.14;96828.34;4995273;28;20166;-85
2024/03/29 07:30:28;;;;;;;1.83;1.42;;;;;;;6.24;86.10;96886.53;5013138;28;20048;-85
2024/03/29 07:32:53;;;;;;;3.33;1.27;;;;;;;5.96;88.82;96857.97;5003512;28;20021;-84
2024/03/29 07:35:18;;;;;;;2.22;1.48;;;;;;;6.07;85.34;96832.28;4990340;28;20150;-84
2024/03/29 07:37:49;;;;;;;4.85;1.58;;;;;;;6.46;86.35;96902.09;4997448;28;20505;-84
2024/03/29 07:40:14;;;;;;;4.53;1.88;;;;;;;6.56;85.22;96894.91;4979411;28;20093;-84
2024/03/29 07:42:40;;;;;;;2.85;1.75;;;;;;;6.58;84.49;96902.56;4966400;28;20061;-84
2024/03/29 07:45:05;;;;;;;2.40;1.50;;;;;;;6.27;85.85;96864.00;4994269;28;20385;-84
2024/03/29 07:47:32;;;;;;;3.35;1.65;;;;;;;6.28;86.41;96876.19;4960636;28;20030;-84
2024/03/29 07:49:57;;;;;;;4.72;1.58;;;;;;;5.58;88.12;96801.09;4981969;28;20482;-84
2024/03/29 07:52:23;;;;;;;2.22;1.42;;;;;;;5.81;86.57;96787.28;4998020;28;20030;-84
2024/03/29 07:54:48;;;;;;;5.15;1.10;;;;;;;6.58;85.97;96879.53;4976904;28;20637;-84
2024/03/29 07:57:15;;;;;;;6.18;1.48;;;;;;;6.28;87.85;96876.19;4997560;28;20542;-84
2024/03/29 07:59:41;;;;;;;1.95;1.67;;;;;;;5.87;88.33;96810.09;4992715;28;20022;-84
2024/03/29 08:02:07;;;;;;;3.88;1.38;;;;;;;6.82;84.91;96904.34;4981349;28;20026;-84
2024/03/29 08:04:34;;;;;;;2.00;1.52;;;;;;;6.59;86.98;96909.47;4995771;28;20026;-84
2024/03/29 08:07:00;;;;;;;3.17;1.10;;;;;;;6.67;87.16;96922.97;5000269;28;20026;-85
2024/03/29 08:09:25;;;;;;;2.03;1.50;;;;;;;6.72;87.62;96919.50;5000471;28;20026;-84
2024/03/29 08:11:51;;;;;;;2.08;1.50;;;;;;;6.91;86.61;96919.69;4994779;28;20049;-85
2024/03/29 08:14:16;;;;;;;2.80;1.33;;;;;;;6.47;89.03;96875.31;5014782;28;20045;-85
2024/03/29 08:16:42;;;;;;;7.38;1.30;;;;;;;6.82;86.96;96898.25;4984603;28;20091;-84
2024/03/29 08:19:08;;;;;;;3.38;1.83;;;;;;;6.94;87.14;96916.50;5001929;28;20037;-85
2024/03/29 08:21:35;;;;;;;2.42;1.40;;;;;;;7.02;87.85;96916.72;4993048;28;20054;-84
2024/03/29 08:24:00;;;;;;;1.77;1.55;;;;;;;7.09;87.58;96919.09;4983803;28;20057;-84
2024/03/29 08:26:28;;;;;;;1.48;1.20;;;;;;;7.06;87.09;96909.00;4987455;28;20496;-84
2024/03/29 08:28:53;;;;;;;2.95;1.38;;;;;;;6.70;87.89;96852.72;5017464;28;20077;-84
2024/03/29 08:31:19;;;;;;;2.47;1.52;;;;;;;6.77;85.23;96824.06;5000818;28;20034;-84
2024/03/29 08:33:44;;;;;;;3.10;1.40;;;;;;;6.98;87.47;96891.81;4971288;28;20116;-85
2024/03/29 08:36:11;;;;;;;2.03;1.50;;;;;;;7.21;87.43;96915.03;5004228;28;20029;-85
2024/03/29 08:38:41;;;;;;;4.53;1.48;;;;;;;7.09;86.34;96872.13;5006249;28;20045;-86
2024/03/29 08:41:06;;;;;;;2.03;1.60;;;;;;;7.05;89.65;96892.31;5000324;28;20056;-85
2024/03/29 08:43:32;;;;;;;3.55;1.70;;;;;;;7.04;90.39;96882.75;5018644;28;21737;-85
2024/03/29 08:45:57;;;;;;;1.55;1.35;;;;;;;7.38;87.88;96907.50;4985549;28;20045;-86
2024/03/29 08:48:26;;;;;;;2.03;1.83;;;;;;;7.35;89.17;96908.06;5003270;28;20058;-86
2024/03/29 08:50:52;;;;;;;5.00;1.80;;;;;;;7.10;90.57;96859.66;5020667;28;20036;-85
2024/03/29 08:53:17;;;;;;;2.28;1.67;;;;;;;7.03;89.04;96841.41;5019786;28;20022;-86
2024/03/29 08:55:42;;;;;;;2.42;1.58;;;;;;;6.93;87.77;96830.84;5006956;28;20034;-85
2024/03/29 08:58:08;;;;;;;1.70;1.23;;;;;;;7.52;87.80;96905.03;4984942;28;20725;-85
2024/03/29 09:00:33;;;;;;;3.03;1.90;;;;;;;7.12;89.22;96855.66;4992607;28;20172;-86
2024/03/29 09:02:59;;;;;;;2.75;1.38;;;;;;;7.01;88.11;96814.34;4971838;28;20026;-85
2024/03/29 09:05:27;;;;;;;1.98;1.50;;;;;;;7.73;89.84;96932.22;5000832;28;20130;-86
2024/03/29 09:07:53;;;;;;;1.70;1.38;;;;;;;7.80;88.42;96935.38;5020118;28;20108;-85
2024/03/29 09:10:18;;;;;;;4.68;1.20;;;;;;;7.70;89.80;96930.91;5002066;28;20053;-85
2024/03/29 09:12:43;;;;;;;2.78;1.23;;;;;;;7.69;90.15;96917.94;4976563;28;20065;-85
2024/03/29 09:15:13;;;;;;;1.55;1.45;;;;;;;7.69;90.55;96933.84;4980166;28;20037;-86
2024/03/29 09:17:40;;;;;;;2.13;1.58;;;;;;;7.68;90.06;96933.06;4986059;28;20033;-86
2024/03/29 09:20:06;;;;;;;3.22;2.40;;;;;;;7.57;89.88;96905.78;5006879;28;20440;-86
2024/03/29 09:22:31;;;;;;;1.65;1.20;;;;;;;7.58;90.36;96895.94;4988902;28;20022;-85
2024/03/29 09:24:57;;;;;;;1.52;1.02;;;;;;;7.85;90.61;96930.00;4985298;28;20038;-84
2024/03/29 09:27:22;;;;;;;1.40;1.30;;;;;;;7.73;90.57;96908.34;4998673;28;20037;-85
2024/03/29 09:29:48;;;;;;;1.45;1.20;;;;;;;7.91;90.23;96921.72;4966567;28;20037;-83
2024/03/29 09:32:17;;;;;;;3.05;1.20;;;;;;;7.57;89.78;96875.78;5012647;28;20018;-85
2024/03/29 09:34:43;;;;;;;4.90;1.15;;;;;;;7.83;89.61;96910.91;5014138;28;20034;-84
2024/03/29 09:37:08;;;;;;;3.70;2.28;;;;;;;7.89;89.01;96902.59;4999056;28;20026;-85
2024/03/29 09:39:33;;;;;;;3.53;1.23;;;;;;;8.06;90.05;96915.50;4999029;28;20033;-85
2024/03/29 09:42:05;;;;;;;1.55;1.20;;;;;;;8.08;90.31;96916.00;4994662;28;20030;-84
2024/03/29 09:44:34;;;;;;;1.10;0.95;;;;;;;8.10;87.75;96914.63;5014369;28;20069;-84
2024/03/29 09:47:03;;;;;;;2.33;1.15;;;;;;;8.17;89.21;96903.69;5002660;28;20045;-85
2024/03/29 09:49:31;;;;;;;3.95;1.20;;;;;;;8.22;89.88;96925.69;4997568;28;20034;-85
2024/03/29 09:51:58;;;;;;;0.90;0.90;;;;;;;8.06;88.80;96912.84;4995935;28;20421;-84
2024/03/29 09:54:28;;;;;;;2.53;0.90;;;;;;;8.18;89.97;96935.31;4998141;28;20026;-84
2024/03/29 09:56:55;;;;;;;1.23;1.10;;;;;;;8.38;89.65;96933.56;5017538;28;20060;-85
2024/03/29 09:59:20;;;;;;;1.55;1.27;;;;;;;8.30;89.54;96933.09;4985559;28;20750;-85
2024/03/29 10:01:48;;;;;;;3.25;0.98;;;;;;;8.04;90.11;96885.72;4999379;28;20060;-85
2024/03/29 10:04:15;;;;;;;1.50;1.13;;;;;;;8.42;89.92;96932.72;4982381;28;20049;-84
2024/03/29 10:06:49;;;;;;;0.70;0.70;;;;;;;8.35;89.56;96903.00;4993763;28;20080;-86
2024/03/29 10:09:16;;;;;;;1.20;1.10;;;;;;;8.40;90.71;96899.50;5012145;28;20026;-85
2024/03/29 10:11:41;;;;;;;1.55;1.20;;;;;;;8.53;89.19;96917.44;5002590;28;20036;-85
2024/03/29 10:14:07;;;;;;;1.67;1.27;;;;;;;8.56;89.41;96925.63;4981075;28;20034;-85
2024/03/29 10:16:35;;;;;;;2.13;1.00;;;;;;;8.54;88.88;96916.38;4981231;28;20070;-85
2024/03/29 10:19:01;;;;;;;1.13;0.75;;;;;;;8.38;90.47;96909.63;5002233;28;20037;-86
2024/03/29 10:21:26;;;;;;;2.90;1.10;;;;;;;8.30;89.57;96897.75;4994941;28;20506;-85
2024/03/29 10:23:54;;;;;;;1.35;1.00;;;;;;;8.41;89.22;96920.47;4977823;28;20045;-85
2024/03/29 10:26:21;;;;;;;1.13;0.98;;;;;;;8.37;89.47;96934.63;4994433;28;20053;-84
2024/03/29 10:28:47;;;;;;;1.45;0.95;;;;;;;8.27;89.64;96923.03;5002158;28;20113;-85
2024/03/29 10:31:14;;;;;;;3.38;1.50;;;;;;;8.36;89.62;96930.38;4964222;28;20034;-85
2024/03/29 10:33:43;;;;;;;1.55;1.10;;;;;;;8.23;89.82;96907.91;4982766;28;20041;-84
2024/03/29 10:36:12;;;;;;;3.78;1.52;;;;;;;8.42;89.58;96950.53;4984194;28;20140;-85
2024/03/29 10:38:37;;;;;;;2.05;1.17;;;;;;;8.26;89.46;96923.28;4999242;28;20034;-85
2024/03/29 10:41:06;;;;;;;3.72;1.13;;;;;;;8.08;89.86;96900.06;4994920;28;20080;-85
2024/03/29 10:43:39;;;;;;;1.02;1.00;;;;;;;7.89;89.45;96864.63;5018799;28;20033;-86
2024/03/29 10:46:05;;;;;;;4.20;1.30;;;;;;;8.47;90.39;96953.94;4994266;28;20030;-85
2024/03/29 10:48:36;;;;;;;2.63;1.00;;;;;;;8.38;90.95;96952.97;5013230;28;20037;-84
2024/03/29 10:51:02;;;;;;;1.10;1.10;;;;;;;8.36;89.28;96923.22;4993204;28;20045;-85
2024/03/29 10:53:29;;;;;;;1.38;1.25;;;;;;;8.38;90.05;96920.25;4997027;28;20040;-85
2024/03/29 10:55:57;;;;;;;3.53;1.77;;;;;;;8.58;90.44;96936.81;4958453;28;20049;-86
2024/03/29 10:58:29;;;;;;;1.00;0.82;;;;;;;8.66;89.99;96938.84;5000019;28;20037;-85
2024/03/29 11:00:57;;;;;;;1.55;1.13;;;;;;;8.66;90.83;96949.47;4983455;28;20053;-85
2024/03/29 11:03:34;;;;;;;1.20;1.10;;;;;;;8.45;91.24;96908.25;4976625;28;20029;-85
2024/03/29 11:06:04;;;;;;;2.58;0.90;;;;;;;8.52;91.53;96921.97;4988336;28;20042;-84
2024/03/29 11:08:34;;;;;;;1.83;1.20;;;;;;;8.43;91.98;96891.75;5010473;28;20116;-85
2024/03/29 11:11:04;;;;;;;2.45;1.40;;;;;;;8.67;92.28;96923.69;5016997;28;20068;-84
2024/03/29 11:13:36;;;;;;;3.88;1.67;;;;;;;8.92;90.61;96944.66;4996104;28;20057;-85
2024/03/29 11:16:01;;;;;;;1.15;1.08;;;;;;;8.72;90.19;96913.78;5015541;28;20065;-85
2024/03/29 11:18:28;;;;;;;1.88;1.27;;;;;;;8.87;90.07;96928.75;4979580;28;20041;-84
2024/03/29 11:20:55;;;;;;;2.83;1.50;;;;;;;8.78;90.27;96909.97;4998928;28;20053;-85
2024/03/29 11:23:22;;;;;;;1.88;1.30;;;;;;;8.96;89.43;96941.16;4999833;28;20029;-85
2024/03/29 11:25:57;;;;;;;1.52;1.00;;;;;;;8.97;89.32;96932.13;4993932;28;20123;-84
2024/03/29 11:28:32;;;;;;;4.07;1.50;;;;;;;8.84;89.28;96913.38;4998665;28;21018;-84
2024/03/29 11:31:04;;;;;;;1.30;1.20;;;;;;;8.64;89.28;96893.13;4994940;28;20058;-84
2024/03/29 11:33:52;;;;;;;1.30;1.20;;;;;;;9.04;89.21;96961.81;5019356;28;20021;-85
2024/03/29 11:36:25;;;;;;;3.85;1.67;;;;;;;8.71;89.57;96911.41;4998526;28;20076;-84
2024/03/29 11:38:59;;;;;;;1.40;1.25;;;;;;;8.94;88.76;96951.28;4986345;28;20490;-83
2024/03/29 11:41:27;;;;;;;1.63;1.52;;;;;;;8.83;89.66;96927.75;4997091;28;20033;-84
2024/03/29 11:43:54;;;;;;;1.40;1.30;;;;;;;8.81;90.03;96904.09;4984439;28;20378;-85